Time;durP1;ratioP1;P1;durP2;ratioP2;P2;SDS_P1;SDS_P2;PMS_P1;PMS_P2;Temp;Humidity;BMP_temperature;BMP_pressure;BME280_temperature;BME280_humidity;BME280_pressure;Samples;Min_cycle;Max_cycle;Signal;HPM_P1;HPM_P2
2022/03/31 00:00:22;;;;;;;7.32;1.98;;;3.00;99.90;;;;;;5074953;28;20424;-55
2022/03/31 00:02:48;;;;;;;4.07;1.75;;;3.10;99.90;;;;;;5074510;28;20609;-56
2022/03/31 00:05:13;;;;;;;7.15;2.03;;;3.10;99.90;;;;;;5074573;28;20028;-55
2022/03/31 00:07:50;;;;;;;6.45;1.92;;;3.30;99.90;;;;;;5063150;28;20037;-56
2022/03/31 00:10:30;;;;;;;3.45;1.77;;;3.10;99.90;;;;;;5054928;28;20041;-55
2022/03/31 00:12:58;;;;;;;5.95;1.70;;;3.10;99.90;;;;;;5054657;28;20041;-55
2022/03/31 00:15:26;;;;;;;7.65;1.88;;;3.10;99.90;;;;;;5056447;28;20041;-56
2022/03/31 00:17:52;;;;;;;7.40;2.25;;;3.00;99.90;;;;;;5074210;28;20115;-56
2022/03/31 00:33:46;;;;;;;3.88;1.80;;;2.90;99.90;;;;;;5062757;28;20111;-54
2022/03/31 00:36:13;;;;;;;5.07;1.90;;;2.90;99.90;;;;;;5073063;28;20032;-55
2022/03/31 00:38:39;;;;;;;5.60;1.90;;;2.90;99.90;;;;;;5038983;28;20089;-55
2022/03/31 00:41:04;;;;;;;5.30;1.90;;;2.90;99.90;;;;;;5074403;28;20037;-55
2022/03/31 00:43:30;;;;;;;4.47;2.00;;;2.90;99.90;;;;;;5074111;28;20169;-55
2022/03/31 00:45:58;;;;;;;8.40;1.75;;;2.90;99.90;;;;;;5057828;28;20467;-55
2022/03/31 00:48:24;;;;;;;5.03;2.20;;;2.90;99.90;;;;;;5035892;28;20131;-55
2022/03/31 00:50:50;;;;;;;6.85;2.10;;;2.80;99.90;;;;;;5053993;28;20092;-55
2022/03/31 00:53:17;;;;;;;5.85;2.10;;;2.80;99.90;;;;;;5067889;28;20024;-55
2022/03/31 00:55:45;;;;;;;7.45;2.28;;;3.00;99.90;;;;;;5073888;28;20036;-55
2022/03/31 00:58:12;;;;;;;5.70;2.20;;;2.80;99.90;;;;;;5073673;28;20411;-54
2022/03/31 01:00:38;;;;;;;5.70;2.03;;;2.80;99.90;;;;;;5069432;28;20104;-55
2022/03/31 01:03:03;;;;;;;6.75;2.55;;;3.00;99.90;;;;;;5053771;28;20437;-55
2022/03/31 01:05:29;;;;;;;6.38;2.40;;;2.80;99.90;;;;;;5072016;28;20036;-54
2022/03/31 01:07:55;;;;;;;6.85;2.38;;;3.00;99.90;;;;;;5066591;28;20036;-56
2022/03/31 01:10:21;;;;;;;10.43;2.47;;;2.70;99.90;;;;;;5073167;28;20407;-55
2022/03/31 01:12:47;;;;;;;6.72;2.13;;;3.00;99.90;;;;;;5065271;28;20037;-56
2022/03/31 01:15:16;;;;;;;4.93;1.85;;;2.80;99.90;;;;;;5088391;22;20827;-55
2022/03/31 01:17:44;;;;;;;7.50;2.03;;;2.70;99.90;;;;;;5075940;28;20032;-55
2022/03/31 01:20:14;;;;;;;7.28;2.33;;;2.60;99.90;;;;;;5094145;28;20097;-55
2022/03/31 01:22:43;;;;;;;7.10;2.08;;;2.90;99.90;;;;;;5094057;28;20040;-55
2022/03/31 01:25:09;;;;;;;3.88;1.77;;;2.80;99.90;;;;;;5093728;28;20551;-54
2022/03/31 01:27:39;;;;;;;7.53;2.00;;;2.70;99.90;;;;;;5093344;28;20047;-54
2022/03/31 01:30:07;;;;;;;6.82;2.22;;;2.70;99.90;;;;;;5093464;28;20161;-55
2022/03/31 01:32:33;;;;;;;7.60;2.10;;;2.70;99.90;;;;;;5092297;28;20039;-55
2022/03/31 01:34:59;;;;;;;7.40;2.17;;;2.70;99.90;;;;;;5093241;28;20446;-54
2022/03/31 01:37:24;;;;;;;6.78;2.03;;;2.60;99.90;;;;;;5093744;28;20036;-55
2022/03/31 01:39:50;;;;;;;11.70;1.98;;;2.80;99.90;;;;;;5075644;28;20427;-55
2022/03/31 01:42:16;;;;;;;6.13;2.15;;;2.70;99.90;;;;;;5093613;28;20476;-55
2022/03/31 01:44:41;;;;;;;4.82;1.98;;;2.50;99.90;;;;;;5092820;28;20075;-55
2022/03/31 01:47:08;;;;;;;6.40;2.42;;;2.50;99.90;;;;;;5075051;28;20059;-55
2022/03/31 01:49:37;;;;;;;6.13;2.35;;;2.50;99.90;;;;;;5093200;28;20065;-55
2022/03/31 01:52:03;;;;;;;8.13;1.90;;;2.50;99.90;;;;;;5093168;28;20123;-55
2022/03/31 01:54:30;;;;;;;4.45;1.80;;;2.60;99.90;;;;;;5093055;28;20036;-55
2022/03/31 01:56:56;;;;;;;4.60;2.13;;;2.60;99.90;;;;;;5074792;28;20028;-55
2022/03/31 01:59:22;;;;;;;6.38;2.20;;;2.70;99.90;;;;;;5091926;28;20077;-54
2022/03/31 02:01:48;;;;;;;5.50;1.90;;;2.50;99.90;;;;;;5074526;28;20032;-55
2022/03/31 02:04:15;;;;;;;5.68;2.03;;;2.60;99.90;;;;;;5092556;28;20055;-54
2022/03/31 02:06:41;;;;;;;7.07;2.42;;;2.60;99.90;;;;;;5092702;28;20051;-55
2022/03/31 02:09:07;;;;;;;6.22;1.88;;;2.60;99.90;;;;;;5092996;28;20040;-55
2022/03/31 02:11:33;;;;;;;6.00;2.00;;;2.70;99.90;;;;;;5092923;28;20047;-54
2022/03/31 02:13:59;;;;;;;5.22;1.92;;;2.70;99.90;;;;;;5092467;28;20043;-55
2022/03/31 02:16:24;;;;;;;5.55;2.20;;;2.60;99.90;;;;;;5074086;28;20040;-55
2022/03/31 02:18:50;;;;;;;8.48;2.40;;;2.60;99.90;;;;;;5092274;28;20032;-55
2022/03/31 02:21:16;;;;;;;6.93;2.22;;;2.60;99.90;;;;;;5092985;28;20028;-55
2022/03/31 02:23:42;;;;;;;5.35;2.22;;;2.60;99.90;;;;;;5092928;28;20039;-55
2022/03/31 02:26:07;;;;;;;5.45;2.00;;;2.70;99.90;;;;;;5092571;28;20048;-55
2022/03/31 02:28:33;;;;;;;6.43;2.05;;;2.80;99.90;;;;;;5091952;28;20423;-55
2022/03/31 02:30:59;;;;;;;5.25;2.20;;;2.80;99.90;;;;;;5092547;28;20035;-55
2022/03/31 02:33:24;;;;;;;6.32;2.20;;;2.70;99.90;;;;;;5092191;28;20040;-55
2022/03/31 02:35:50;;;;;;;6.35;1.95;;;2.70;99.90;;;;;;5092440;28;20400;-55
2022/03/31 02:38:16;;;;;;;6.35;1.83;;;2.60;99.90;;;;;;5092491;28;20109;-56
2022/03/31 02:40:42;;;;;;;9.38;1.85;;;2.70;99.90;;;;;;5092608;28;20510;-55
2022/03/31 02:43:08;;;;;;;8.23;2.30;;;2.70;99.90;;;;;;5091966;28;20500;-55
2022/03/31 02:45:33;;;;;;;4.78;1.95;;;2.70;99.90;;;;;;5092325;28;20405;-55
2022/03/31 02:47:59;;;;;;;7.60;1.92;;;2.60;99.90;;;;;;5092076;28;20040;-55
2022/03/31 02:50:25;;;;;;;4.32;2.03;;;2.70;99.90;;;;;;5092521;28;20036;-54
2022/03/31 02:55:35;;;;;;;8.25;2.72;;;2.70;99.90;;;;;;5074447;28;20403;-55
2022/03/31 02:58:03;;;;;;;5.22;2.15;;;2.60;99.90;;;;;;5091619;28;20107;-55
2022/03/31 03:00:32;;;;;;;5.43;2.00;;;2.60;99.90;;;;;;5092055;28;20522;-55
2022/03/31 03:02:58;;;;;;;6.28;2.30;;;2.70;99.90;;;;;;5092630;28;20064;-55
2022/03/31 03:05:24;;;;;;;4.53;1.98;;;2.70;99.90;;;;;;5092337;28;20071;-55
2022/03/31 03:07:49;;;;;;;5.22;2.20;;;2.70;99.90;;;;;;5091936;28;20087;-55
2022/03/31 03:10:15;;;;;;;4.97;2.40;;;2.70;99.90;;;;;;5092113;28;20028;-54
2022/03/31 03:12:41;;;;;;;8.82;2.90;;;2.70;99.90;;;;;;5091691;28;20042;-54
2022/03/31 03:15:08;;;;;;;6.55;2.47;;;2.70;99.90;;;;;;5091670;28;20388;-54
2022/03/31 03:17:34;;;;;;;7.00;2.40;;;2.70;99.90;;;;;;5091944;28;20039;-54
2022/03/31 03:20:00;;;;;;;5.13;2.13;;;2.70;99.90;;;;;;5092200;28;20036;-56
2022/03/31 03:22:26;;;;;;;10.48;2.53;;;2.80;99.90;;;;;;5091580;28;20038;-57
2022/03/31 03:24:52;;;;;;;5.13;2.60;;;2.80;99.90;;;;;;5073862;28;20450;-57
2022/03/31 03:27:18;;;;;;;5.20;2.58;;;2.80;99.90;;;;;;5091361;28;20044;-56
2022/03/31 03:29:46;;;;;;;8.20;3.08;;;2.80;99.90;;;;;;5091430;28;20051;-56
2022/03/31 03:32:14;;;;;;;7.85;2.75;;;2.80;99.90;;;;;;5092001;28;20047;-56
2022/03/31 03:34:39;;;;;;;5.10;2.70;;;2.80;99.90;;;;;;5091759;28;20044;-56
2022/03/31 03:37:06;;;;;;;8.07;2.97;;;2.70;99.90;;;;;;5091523;28;20051;-56
2022/03/31 03:39:32;;;;;;;5.78;2.72;;;2.70;99.90;;;;;;5091402;28;20043;-55
2022/03/31 03:41:58;;;;;;;8.88;3.05;;;2.70;99.90;;;;;;5091398;28;20036;-55
2022/03/31 03:44:24;;;;;;;7.90;3.00;;;2.70;99.90;;;;;;5073127;28;20552;-57
2022/03/31 03:46:50;;;;;;;8.57;3.65;;;2.70;99.90;;;;;;5091345;28;20499;-55
2022/03/31 03:49:16;;;;;;;7.50;3.45;;;2.80;99.90;;;;;;5091744;28;20047;-55
2022/03/31 03:51:42;;;;;;;8.43;3.47;;;2.80;99.90;;;;;;5091510;28;20044;-54
2022/03/31 03:54:07;;;;;;;9.38;4.00;;;2.70;99.90;;;;;;5091603;28;20449;-55
2022/03/31 03:56:33;;;;;;;10.45;4.97;;;2.70;99.90;;;;;;5090756;28;20119;-54
2022/03/31 03:58:58;;;;;;;8.20;4.35;;;2.70;99.90;;;;;;5090485;28;20075;-56
2022/03/31 04:01:24;;;;;;;9.10;5.00;;;2.70;99.90;;;;;;5084614;28;20062;-56
2022/03/31 04:03:49;;;;;;;9.45;4.97;;;2.90;99.90;;;;;;5083103;28;20170;-57
2022/03/31 04:06:15;;;;;;;14.45;5.40;;;2.90;99.90;;;;;;5091170;28;20321;-56
2022/03/31 04:08:40;;;;;;;12.38;5.75;;;2.80;99.90;;;;;;5091127;28;20530;-55
2022/03/31 04:11:06;;;;;;;9.77;5.68;;;2.90;99.90;;;;;;5091079;28;20038;-56
2022/03/31 04:13:31;;;;;;;11.70;6.18;;;2.80;99.90;;;;;;5090900;28;20044;-56
2022/03/31 04:15:57;;;;;;;11.93;5.68;;;2.80;99.90;;;;;;5090950;28;20633;-56
2022/03/31 04:18:23;;;;;;;15.15;6.53;;;2.90;99.90;;;;;;5073166;28;20032;-56
2022/03/31 04:20:49;;;;;;;13.70;6.85;;;2.80;99.90;;;;;;5091501;28;20043;-57
2022/03/31 04:23:14;;;;;;;15.52;6.80;;;2.80;99.90;;;;;;5092790;28;20040;-56
2022/03/31 04:25:40;;;;;;;14.02;7.00;;;2.80;99.90;;;;;;5094571;28;20043;-56
2022/03/31 04:28:06;;;;;;;10.48;6.40;;;2.70;99.90;;;;;;5076300;28;20157;-57
2022/03/31 04:30:32;;;;;;;10.80;7.10;;;2.80;99.90;;;;;;5094810;28;20040;-57
2022/03/31 04:32:58;;;;;;;11.32;6.13;;;2.90;99.90;;;;;;5083049;28;20395;-57
2022/03/31 04:35:23;;;;;;;14.73;7.35;;;2.90;99.90;;;;;;5081527;28;20556;-57
2022/03/31 04:37:49;;;;;;;17.50;7.85;;;2.80;99.90;;;;;;5082402;28;20447;-57
2022/03/31 04:40:14;;;;;;;12.98;6.25;;;2.80;99.90;;;;;;5074127;28;20052;-57
2022/03/31 04:42:40;;;;;;;15.30;7.53;;;3.00;99.90;;;;;;5074422;28;20037;-57
2022/03/31 04:45:07;;;;;;;11.45;6.28;;;2.90;99.90;;;;;;5074074;28;20115;-57
2022/03/31 04:47:32;;;;;;;12.85;7.53;;;2.80;99.90;;;;;;5077816;28;20404;-57
2022/03/31 04:49:58;;;;;;;12.80;7.60;;;2.80;99.90;;;;;;5093964;28;20044;-56
2022/03/31 04:52:24;;;;;;;13.10;7.00;;;2.80;99.90;;;;;;5094663;28;20047;-56
2022/03/31 04:54:49;;;;;;;13.43;8.50;;;2.70;99.90;;;;;;5084418;28;20037;-57
2022/03/31 04:57:18;;;;;;;12.05;8.02;;;2.70;99.90;;;;;;5065258;28;20032;-57
2022/03/31 04:59:44;;;;;;;13.85;9.00;;;2.80;99.90;;;;;;5070034;28;20041;-57
2022/03/31 05:02:10;;;;;;;15.57;9.32;;;2.70;99.90;;;;;;5094558;28;20380;-57
2022/03/31 05:04:36;;;;;;;12.70;8.52;;;2.70;99.90;;;;;;5093931;28;20044;-56
2022/03/31 05:07:02;;;;;;;14.35;8.13;;;2.70;99.90;;;;;;5093675;28;20546;-56
2022/03/31 05:09:28;;;;;;;14.35;8.70;;;2.80;99.90;;;;;;5093692;28;20082;-56
2022/03/31 05:11:53;;;;;;;14.48;8.75;;;2.80;99.90;;;;;;5093757;28;20508;-56
2022/03/31 05:14:19;;;;;;;12.93;8.93;;;2.80;99.90;;;;;;5093838;28;20051;-56
2022/03/31 05:16:44;;;;;;;13.43;8.20;;;2.80;99.90;;;;;;5075427;28;20044;-56
2022/03/31 05:19:11;;;;;;;10.43;6.47;;;2.80;99.90;;;;;;5113410;28;20036;-57
2022/03/31 05:21:36;;;;;;;14.93;9.55;;;2.90;99.90;;;;;;5113990;28;20075;-56
2022/03/31 05:24:02;;;;;;;13.77;9.32;;;2.80;99.90;;;;;;5093865;28;20140;-57
2022/03/31 05:26:28;;;;;;;12.35;8.30;;;2.80;99.90;;;;;;5092517;28;20035;-58
2022/03/31 05:28:54;;;;;;;13.80;8.60;;;2.80;99.90;;;;;;5093152;28;20032;-57
2022/03/31 05:31:19;;;;;;;13.52;8.80;;;2.80;99.90;;;;;;5093656;28;20040;-57
2022/03/31 05:33:45;;;;;;;13.98;9.13;;;2.80;99.90;;;;;;5093286;28;20223;-58
2022/03/31 05:36:10;;;;;;;12.77;9.02;;;2.80;99.90;;;;;;5092963;28;20492;-57
2022/03/31 05:38:36;;;;;;;14.98;9.85;;;2.80;99.90;;;;;;5093155;28;20035;-58
2022/03/31 05:41:02;;;;;;;12.20;8.18;;;2.80;99.90;;;;;;5090173;28;20060;-58
2022/03/31 05:43:27;;;;;;;13.38;8.20;;;2.80;99.90;;;;;;5069022;28;20407;-58
2022/03/31 05:45:53;;;;;;;12.05;8.27;;;2.80;99.90;;;;;;5091242;28;20096;-57
2022/03/31 05:48:19;;;;;;;15.30;8.23;;;2.80;99.90;;;;;;5062530;28;20081;-57
2022/03/31 05:50:45;;;;;;;15.07;9.30;;;2.90;99.90;;;;;;5089089;28;20407;-57
2022/03/31 05:53:10;;;;;;;11.90;8.27;;;2.90;99.90;;;;;;5084998;28;20044;-57
2022/03/31 05:55:36;;;;;;;12.63;8.25;;;2.90;99.90;;;;;;5092751;28;20043;-57
2022/03/31 05:58:02;;;;;;;11.65;7.75;;;2.90;99.90;;;;;;5084238;28;20025;-57
2022/03/31 06:00:28;;;;;;;11.68;7.32;;;2.90;99.90;;;;;;5092648;28;20107;-58
2022/03/31 06:02:55;;;;;;;11.75;7.72;;;3.00;99.90;;;;;;5092711;28;20111;-57
2022/03/31 06:05:21;;;;;;;12.00;7.90;;;3.00;99.90;;;;;;5092566;28;20071;-57
2022/03/31 06:07:47;;;;;;;9.15;6.53;;;3.10;99.90;;;;;;5092378;28;20042;-58
2022/03/31 06:10:13;;;;;;;11.23;7.45;;;3.10;99.90;;;;;;5093164;28;20106;-57
2022/03/31 06:12:39;;;;;;;12.43;8.18;;;3.10;99.90;;;;;;5092726;28;20513;-57
2022/03/31 06:15:06;;;;;;;9.68;6.25;;;3.00;99.90;;;;;;5092347;28;20515;-57
2022/03/31 06:17:32;;;;;;;10.40;7.65;;;3.00;99.90;;;;;;5092373;28;20036;-57
2022/03/31 06:19:57;;;;;;;9.57;6.13;;;3.00;99.90;;;;;;5092314;28;20510;-57
2022/03/31 06:22:23;;;;;;;13.07;7.93;;;3.00;99.90;;;;;;5092320;28;20036;-57
2022/03/31 06:24:49;;;;;;;11.20;7.75;;;3.00;99.90;;;;;;5092198;28;20036;-58
2022/03/31 06:27:15;;;;;;;11.93;7.95;;;3.00;99.90;;;;;;5092295;28;20066;-57
2022/03/31 06:29:42;;;;;;;10.63;7.03;;;3.00;99.90;;;;;;5088472;28;20048;-57
2022/03/31 06:32:08;;;;;;;10.13;7.22;;;3.10;99.90;;;;;;5083976;28;20423;-57
2022/03/31 06:34:36;;;;;;;10.07;6.97;;;3.00;99.90;;;;;;5084707;28;20033;-57
2022/03/31 06:37:01;;;;;;;11.57;7.00;;;3.10;99.90;;;;;;5090513;28;20040;-57
2022/03/31 06:39:27;;;;;;;11.20;7.78;;;3.00;99.90;;;;;;5092492;28;20089;-57
2022/03/31 06:41:53;;;;;;;10.90;7.63;;;3.10;99.90;;;;;;5092086;28;20510;-57
2022/03/31 06:44:21;;;;;;;8.40;5.80;;;3.10;99.90;;;;;;5092565;28;20044;-58
2022/03/31 06:46:47;;;;;;;10.60;7.05;;;3.10;99.90;;;;;;5091098;28;20044;-57
2022/03/31 06:49:12;;;;;;;9.73;6.47;;;3.10;99.90;;;;;;5092107;28;20032;-57
2022/03/31 06:51:38;;;;;;;10.52;7.60;;;3.20;99.90;;;;;;5091532;28;20043;-57
2022/03/31 06:54:04;;;;;;;12.15;8.13;;;3.20;99.90;;;;;;5089871;28;20051;-57
2022/03/31 06:56:31;;;;;;;14.30;9.35;;;3.30;99.90;;;;;;5085032;28;20028;-57
2022/03/31 06:58:58;;;;;;;14.25;9.77;;;3.20;99.90;;;;;;5079656;28;20074;-57
2022/03/31 07:01:24;;;;;;;13.35;7.90;;;3.20;99.90;;;;;;5085692;28;20442;-55
2022/03/31 07:03:50;;;;;;;11.38;7.40;;;3.30;99.90;;;;;;5075785;28;20128;-58
2022/03/31 07:06:15;;;;;;;12.98;9.18;;;3.30;99.90;;;;;;5070527;28;20133;-57
2022/03/31 07:08:41;;;;;;;12.35;8.50;;;3.30;99.90;;;;;;5070718;28;20036;-57
2022/03/31 07:11:09;;;;;;;14.45;10.25;;;3.30;99.90;;;;;;5070855;28;20451;-57
2022/03/31 07:13:34;;;;;;;16.67;9.00;;;3.20;99.90;;;;;;5053969;28;20253;-57
2022/03/31 07:16:00;;;;;;;8.20;5.57;;;3.20;99.90;;;;;;5086227;22;20051;-53
2022/03/31 07:18:26;;;;;;;11.80;8.27;;;3.30;99.90;;;;;;5075722;28;20029;-54
2022/03/31 07:20:52;;;;;;;11.52;8.52;;;3.30;99.90;;;;;;5072173;28;20039;-53
2022/03/31 07:23:19;;;;;;;13.38;9.50;;;3.30;99.90;;;;;;5075223;28;20036;-51
2022/03/31 07:25:45;;;;;;;12.82;8.65;;;3.30;99.90;;;;;;5071256;28;20071;-53
2022/03/31 07:28:10;;;;;;;12.35;9.27;;;3.30;99.90;;;;;;5075653;28;20045;-54
2022/03/31 07:30:36;;;;;;;10.30;7.85;;;3.30;99.90;;;;;;5074981;28;20518;-53
2022/03/31 07:33:03;;;;;;;10.20;6.00;;;3.40;99.90;;;;;;5081915;28;20044;-56
2022/03/31 07:35:34;;;;;;;9.88;7.45;;;3.50;99.90;;;;;;5090924;28;20036;-52
2022/03/31 07:38:04;;;;;;;11.63;8.38;;;3.60;99.90;;;;;;5088072;28;20082;-54
2022/03/31 07:40:30;;;;;;;10.77;8.55;;;3.50;99.90;;;;;;5073514;28;20033;-54
2022/03/31 07:42:56;;;;;;;10.90;7.75;;;3.40;99.90;;;;;;5072231;28;20033;-53
2022/03/31 07:45:23;;;;;;;10.18;6.95;;;3.40;99.90;;;;;;5076880;28;20383;-55
2022/03/31 07:47:49;;;;;;;9.95;7.60;;;3.50;99.90;;;;;;5076287;28;20499;-53
2022/03/31 07:50:18;;;;;;;9.15;7.03;;;3.50;99.90;;;;;;5076147;28;20029;-53
2022/03/31 07:52:44;;;;;;;10.98;7.95;;;3.50;99.90;;;;;;5074994;28;20085;-55
2022/03/31 07:55:12;;;;;;;11.20;8.27;;;3.50;99.90;;;;;;5071616;28;20043;-55
2022/03/31 07:57:38;;;;;;;10.52;7.53;;;3.40;99.90;;;;;;5078427;28;20044;-53
2022/03/31 08:00:06;;;;;;;10.20;7.40;;;3.50;99.90;;;;;;5080460;28;20251;-52
2022/03/31 08:02:32;;;;;;;11.07;7.68;;;3.50;99.90;;;;;;5061966;28;20035;-53
2022/03/31 08:04:58;;;;;;;12.25;8.77;;;3.40;99.90;;;;;;5095247;28;20115;-53
2022/03/31 08:07:23;;;;;;;10.85;7.85;;;3.40;99.90;;;;;;5090096;28;20075;-55
2022/03/31 08:09:49;;;;;;;10.48;7.50;;;3.40;99.90;;;;;;5080731;28;20036;-53
2022/03/31 08:12:14;;;;;;;9.55;7.40;;;3.40;99.90;;;;;;5082008;28;20040;-52
2022/03/31 08:14:40;;;;;;;13.40;9.60;;;3.50;99.90;;;;;;5091362;28;20036;-53
2022/03/31 08:17:06;;;;;;;12.98;9.25;;;3.40;99.90;;;;;;5087379;28;20546;-49
2022/03/31 08:19:32;;;;;;;11.70;8.85;;;3.40;99.90;;;;;;5085315;28;20462;-49
2022/03/31 08:22:01;;;;;;;11.90;8.70;;;3.40;99.90;;;;;;5083633;28;20500;-49
2022/03/31 08:24:27;;;;;;;13.23;9.20;;;3.40;99.90;;;;;;5084850;28;20183;-53
2022/03/31 08:26:52;;;;;;;12.40;9.50;;;4.10;99.90;;;;;;5082227;28;20290;-53
2022/03/31 08:29:19;;;;;;;10.52;7.53;;;3.40;99.90;;;;;;5085936;28;20380;-53
2022/03/31 08:31:45;;;;;;;13.30;9.25;;;3.40;99.90;;;;;;5080804;28;20041;-53
2022/03/31 08:34:11;;;;;;;13.10;9.68;;;3.40;99.90;;;;;;5053511;28;20045;-53
2022/03/31 08:36:37;;;;;;;13.30;8.30;;;3.40;99.90;;;;;;5082399;28;20032;-53
2022/03/31 08:39:04;;;;;;;12.90;9.55;;;3.40;99.90;;;;;;5079353;28;20036;-53
2022/03/31 08:41:30;;;;;;;12.50;8.90;;;3.40;99.90;;;;;;5087159;28;20040;-51
2022/03/31 08:43:56;;;;;;;12.43;8.85;;;3.40;99.90;;;;;;5081382;28;20510;-51
2022/03/31 08:46:27;;;;;;;11.77;8.75;;;3.40;99.90;;;;;;5086349;28;20479;-54
2022/03/31 08:48:53;;;;;;;12.63;8.88;;;3.40;99.90;;;;;;5083713;28;20140;-53
2022/03/31 08:51:21;;;;;;;12.15;7.93;;;3.30;99.90;;;;;;5067687;28;20140;-53
2022/03/31 08:53:47;;;;;;;12.48;8.63;;;3.40;99.90;;;;;;5087446;28;20080;-53
2022/03/31 08:56:12;;;;;;;12.50;8.38;;;3.40;99.90;;;;;;5090357;28;20117;-52
2022/03/31 08:58:38;;;;;;;13.55;9.18;;;3.40;99.90;;;;;;5078118;28;20040;-53
2022/03/31 09:01:03;;;;;;;12.68;8.95;;;3.30;99.90;;;;;;5088592;28;20051;-50
2022/03/31 09:03:36;;;;;;;13.07;8.85;;;3.20;99.90;;;;;;5078747;28;20044;-53
2022/03/31 09:06:04;;;;;;;20.70;11.75;;;3.30;99.90;;;;;;5080234;28;20097;-53
2022/03/31 09:08:30;;;;;;;19.13;12.00;;;3.30;99.90;;;;;;5076764;28;20094;-53
2022/03/31 09:11:03;;;;;;;16.73;11.43;;;3.20;99.90;;;;;;5078580;28;20037;-57
2022/03/31 09:13:36;;;;;;;14.30;9.25;;;3.10;99.90;;;;;;5072224;28;20051;-54
2022/03/31 09:16:13;;;;;;;12.88;8.60;;;3.20;99.90;;;;;;5076440;28;20076;-52
2022/03/31 09:18:39;;;;;;;13.18;9.00;;;3.10;99.90;;;;;;5040130;28;20040;-55
2022/03/31 09:21:13;;;;;;;12.55;9.07;;;3.00;99.90;;;;;;5075441;28;20495;-53
2022/03/31 09:23:43;;;;;;;10.50;7.63;;;3.10;99.90;;;;;;5088381;28;20346;-55
2022/03/31 09:26:12;;;;;;;11.50;7.38;;;3.10;99.90;;;;;;5071040;28;20390;-53
2022/03/31 09:28:39;;;;;;;12.93;8.07;;;3.20;99.90;;;;;;5082440;28;20431;-52
2022/03/31 09:31:08;;;;;;;13.35;8.52;;;3.10;99.90;;;;;;5083640;28;20036;-55
2022/03/31 09:33:49;;;;;;;17.45;11.65;;;3.10;99.90;;;;;;5067309;28;20040;-56
2022/03/31 09:36:17;;;;;;;15.55;10.57;;;3.10;99.90;;;;;;5077751;28;20427;-51
2022/03/31 09:38:58;;;;;;;14.55;10.38;;;3.00;99.90;;;;;;5080554;28;20360;-53
2022/03/31 09:41:25;;;;;;;23.48;14.18;;;3.00;99.90;;;;;;5079615;28;20031;-53
2022/03/31 09:43:52;;;;;;;12.30;8.48;;;3.00;99.90;;;;;;5074780;28;20036;-53
2022/03/31 09:46:18;;;;;;;12.18;8.68;;;3.10;99.90;;;;;;5077221;28;20039;-53
2022/03/31 09:48:45;;;;;;;12.75;8.98;;;3.10;99.90;;;;;;5075339;28;20746;-54
2022/03/31 09:51:10;;;;;;;14.32;9.20;;;3.10;99.90;;;;;;5082393;28;20067;-53
2022/03/31 09:53:36;;;;;;;11.43;8.45;;;3.10;99.90;;;;;;5074068;28;20118;-55
2022/03/31 09:56:02;;;;;;;11.93;8.68;;;3.10;99.90;;;;;;5079795;28;20123;-54
2022/03/31 09:58:28;;;;;;;12.45;8.50;;;3.00;99.90;;;;;;5079648;28;20035;-54
2022/03/31 10:00:54;;;;;;;11.27;7.72;;;3.10;99.90;;;;;;5077652;28;20484;-54
2022/03/31 10:03:21;;;;;;;9.27;6.85;;;3.10;99.90;;;;;;5079806;28;20102;-53
2022/03/31 10:05:48;;;;;;;11.45;7.90;;;3.10;99.90;;;;;;5055721;28;20047;-53
2022/03/31 10:08:14;;;;;;;11.55;8.20;;;3.10;99.90;;;;;;5080925;28;20447;-51
2022/03/31 10:10:40;;;;;;;10.48;7.30;;;3.20;99.90;;;;;;5076872;28;20068;-55
2022/03/31 10:13:24;;;;;;;9.98;6.45;;;3.20;99.90;;;;;;5076521;28;20040;-55
2022/03/31 10:15:58;;;;;;;10.90;7.40;;;3.20;99.90;;;;;;5059338;28;20111;-53
2022/03/31 10:18:25;;;;;;;10.23;7.28;;;3.10;99.90;;;;;;5077302;28;20045;-55
2022/03/31 10:20:58;;;;;;;9.30;6.32;;;3.10;99.90;;;;;;5074076;28;20050;-54
2022/03/31 10:26:32;;;;;;;11.13;7.40;;;3.30;99.90;;;;;;5068274;28;20682;-53
2022/03/31 10:29:01;;;;;;;10.10;7.20;;;3.30;99.90;;;;;;5050859;28;20096;-53
2022/03/31 10:31:54;;;;;;;11.15;7.80;;;3.20;99.90;;;;;;5089656;28;20320;-55
2022/03/31 10:34:19;;;;;;;;;;;3.20;99.90;;;;;;5085196;28;20087;-53
2022/03/31 10:36:50;;;;;;;6.65;4.60;;;3.30;99.90;;;;;;5087864;28;19982;-57
2022/03/31 10:39:19;;;;;;;5.80;3.45;;;3.30;99.90;;;;;;5068705;28;20085;-55
2022/03/31 10:41:45;;;;;;;5.28;3.50;;;3.40;99.90;;;;;;5074920;28;20040;-56
2022/03/31 10:44:11;;;;;;;4.45;2.95;;;3.40;99.90;;;;;;5073020;28;20126;-54
2022/03/31 10:46:38;;;;;;;4.68;3.13;;;3.40;99.90;;;;;;5073280;28;20067;-53
2022/03/31 10:49:09;;;;;;;4.10;2.75;;;3.30;99.90;;;;;;5043470;28;20044;-55
2022/03/31 10:51:37;;;;;;;4.25;2.95;;;3.30;99.90;;;;;;5063705;28;20084;-53
2022/03/31 10:54:04;;;;;;;5.07;2.83;;;3.30;99.90;;;;;;5082590;28;20024;-54
2022/03/31 10:56:32;;;;;;;5.05;3.03;;;3.30;99.90;;;;;;5046649;28;20032;-55
2022/03/31 10:58:59;;;;;;;3.63;2.25;;;3.20;99.90;;;;;;5079653;28;20540;-53
2022/03/31 11:01:46;;;;;;;3.67;2.75;;;3.20;99.90;;;;;;5062320;28;20037;-52
2022/03/31 11:04:12;;;;;;;3.22;2.38;;;3.10;99.90;;;;;;5074526;28;20482;-53
2022/03/31 11:06:48;;;;;;;5.20;3.10;;;3.10;99.90;;;;;;5075303;28;20044;-53
2022/03/31 11:09:27;;;;;;;4.72;2.80;;;3.00;99.90;;;;;;5075488;28;20085;-54
2022/03/31 11:11:55;;;;;;;5.72;3.10;;;2.90;99.90;;;;;;5078895;28;20036;-53
2022/03/31 11:14:22;;;;;;;5.28;3.40;;;2.90;99.90;;;;;;5075550;28;20040;-52
2022/03/31 11:16:47;;;;;;;3.80;2.63;;;3.00;99.90;;;;;;5074278;28;20036;-53
2022/03/31 11:19:13;;;;;;;6.95;3.47;;;3.10;99.90;;;;;;5082709;28;20032;-53
2022/03/31 11:21:42;;;;;;;5.88;3.28;;;3.00;99.90;;;;;;5084765;28;20040;-54
2022/03/31 11:24:09;;;;;;;5.43;3.20;;;2.80;99.90;;;;;;5081603;28;20076;-55
2022/03/31 11:26:46;;;;;;;5.68;3.53;;;2.80;99.90;;;;;;5088534;28;20028;-54
2022/03/31 11:29:14;;;;;;;8.90;4.47;;;2.80;99.90;;;;;;5080870;28;20036;-53
2022/03/31 11:31:57;;;;;;;5.57;3.40;;;2.80;99.90;;;;;;5086018;28;20051;-53
2022/03/31 11:34:25;;;;;;;6.63;3.95;;;2.70;99.90;;;;;;5080240;28;20037;-53
2022/03/31 11:36:52;;;;;;;4.95;3.17;;;2.70;99.90;;;;;;5085358;28;20174;-53
2022/03/31 11:39:19;;;;;;;7.90;4.13;;;2.80;99.90;;;;;;5092661;28;20097;-53
2022/03/31 11:41:45;;;;;;;8.27;4.30;;;2.80;99.90;;;;;;5086398;28;20036;-55
2022/03/31 11:44:11;;;;;;;7.00;4.47;;;2.70;99.90;;;;;;5083665;28;20048;-55
2022/03/31 11:46:42;;;;;;;15.95;8.38;;;2.60;99.90;;;;;;5082014;28;20028;-56
2022/03/31 11:49:14;;;;;;;9.07;5.28;;;2.60;99.90;;;;;;5084090;28;20090;-55
2022/03/31 11:51:40;;;;;;;12.85;6.72;;;2.60;99.90;;;;;;5088659;28;20511;-52
2022/03/31 11:54:09;;;;;;;13.10;7.40;;;2.60;99.90;;;;;;5086815;28;20032;-52
2022/03/31 11:56:34;;;;;;;10.45;6.72;;;1.90;99.90;;;;;;5094705;28;20038;-55
2022/03/31 11:59:00;;;;;;;8.18;4.85;;;2.50;99.90;;;;;;5084532;28;20571;-54
2022/03/31 12:01:34;;;;;;;6.40;4.10;;;2.40;99.90;;;;;;5079364;28;20434;-56
2022/03/31 12:03:59;;;;;;;9.68;5.57;;;2.40;99.90;;;;;;5087267;28;20553;-55
2022/03/31 12:06:30;;;;;;;10.60;6.38;;;2.30;99.90;;;;;;5094988;28;20040;-53
2022/03/31 12:08:56;;;;;;;5.15;3.20;;;2.20;99.90;;;;;;5078961;28;20064;-53
2022/03/31 12:11:22;;;;;;;8.02;4.50;;;2.40;99.90;;;;;;5086974;28;20041;-53
2022/03/31 12:13:51;;;;;;;9.73;5.20;;;2.40;99.90;;;;;;5085423;28;20032;-53
2022/03/31 12:16:17;;;;;;;7.70;4.80;;;2.30;99.90;;;;;;5072809;28;20032;-52
2022/03/31 12:18:43;;;;;;;7.20;4.18;;;2.20;99.90;;;;;;5085506;28;20072;-54
2022/03/31 12:21:10;;;;;;;6.32;3.88;;;2.20;99.90;;;;;;5088226;28;20036;-53
2022/03/31 12:23:44;;;;;;;6.15;3.83;;;2.20;99.90;;;;;;5090718;28;20504;-54
2022/03/31 12:26:20;;;;;;;6.93;4.25;;;2.10;99.90;;;;;;5090839;28;20111;-53
2022/03/31 12:28:47;;;;;;;8.50;5.15;;;2.10;99.90;;;;;;5087973;28;20079;-55
2022/03/31 12:31:26;;;;;;;6.65;4.32;;;2.20;99.90;;;;;;5075859;28;20492;-53
2022/03/31 12:33:53;;;;;;;10.55;6.60;;;2.10;99.90;;;;;;5076147;28;20036;-54
2022/03/31 12:36:33;;;;;;;9.02;5.82;;;2.20;99.90;;;;;;5082564;28;20489;-55
2022/03/31 12:39:02;;;;;;;7.13;4.47;;;2.20;99.90;;;;;;5078893;28;20094;-55
2022/03/31 12:41:34;;;;;;;6.68;4.43;;;2.20;99.90;;;;;;5077785;28;20033;-53
2022/03/31 12:44:16;;;;;;;8.38;5.32;;;2.10;99.90;;;;;;5055404;28;20097;-53
2022/03/31 12:46:52;;;;;;;9.73;5.95;;;2.20;99.90;;;;;;5082848;28;20511;-54
2022/03/31 12:49:21;;;;;;;9.80;6.22;;;2.20;99.90;;;;;;5086977;28;20078;-54
2022/03/31 12:51:59;;;;;;;8.25;4.72;;;2.10;99.90;;;;;;5094388;28;20040;-53
2022/03/31 12:54:32;;;;;;;8.25;5.00;;;2.20;99.90;;;;;;5093744;28;20525;-54
2022/03/31 12:57:19;;;;;;;10.48;6.50;;;2.20;99.90;;;;;;5093885;28;20467;-54
2022/03/31 12:59:58;;;;;;;8.63;5.70;;;2.20;99.90;;;;;;5094285;28;20132;-54
2022/03/31 13:02:23;;;;;;;10.57;6.40;;;2.20;99.90;;;;;;5076907;28;20512;-54
2022/03/31 13:04:49;;;;;;;9.07;6.22;;;2.20;99.90;;;;;;5082123;28;20041;-53
2022/03/31 13:07:27;;;;;;;9.82;6.55;;;2.20;99.90;;;;;;5081322;28;20077;-53
2022/03/31 13:09:53;;;;;;;12.98;8.55;;;2.30;99.90;;;;;;5075931;28;20393;-53
2022/03/31 13:12:19;;;;;;;16.67;8.90;;;2.20;99.90;;;;;;5085861;28;20040;-54